sensor_id;sensor_type;location;lat;lon;timestamp;pressure;altitude;pressure_sealevel;temperature;humidity
9796;BME280;4937;42.680;27.704;2023-12-20T00:01:45;101959.50;;;2.25;80.27
9796;BME280;4937;42.680;27.704;2023-12-20T00:04:11;101954.69;;;2.34;80.66
9796;BME280;4937;42.680;27.704;2023-12-20T00:06:36;101950.56;;;2.40;81.16
9796;BME280;4937;42.680;27.704;2023-12-20T00:09:02;101954.94;;;2.44;81.51
9796;BME280;4937;42.680;27.704;2023-12-20T00:11:27;101944.19;;;2.51;81.73
9796;BME280;4937;42.680;27.704;2023-12-20T00:13:52;101959.13;;;2.57;81.22
9796;BME280;4937;42.680;27.704;2023-12-20T00:16:18;101953.75;;;2.61;81.21
9796;BME280;4937;42.680;27.704;2023-12-20T00:18:44;101958.09;;;2.62;81.01
9796;BME280;4937;42.680;27.704;2023-12-20T00:21:09;101956.84;;;2.59;81.31
9796;BME280;4937;42.680;27.704;2023-12-20T00:23:34;101954.00;;;2.71;83.04
9796;BME280;4937;42.680;27.704;2023-12-20T00:26:00;101943.16;;;2.56;81.94
9796;BME280;4937;42.680;27.704;2023-12-20T00:28:25;101952.44;;;2.70;82.78
9796;BME280;4937;42.680;27.704;2023-12-20T00:30:51;101945.59;;;2.76;82.48
9796;BME280;4937;42.680;27.704;2023-12-20T00:33:16;101941.97;;;2.72;81.37
9796;BME280;4937;42.680;27.704;2023-12-20T00:35:41;101946.03;;;2.78;81.33
9796;BME280;4937;42.680;27.704;2023-12-20T00:38:07;101941.78;;;2.81;81.64
9796;BME280;4937;42.680;27.704;2023-12-20T00:40:34;101951.63;;;2.85;82.11
9796;BME280;4937;42.680;27.704;2023-12-20T00:42:59;101935.19;;;2.82;81.46
9796;BME280;4937;42.680;27.704;2023-12-20T00:45:24;101932.56;;;2.85;81.88
9796;BME280;4937;42.680;27.704;2023-12-20T00:47:50;101930.28;;;2.72;82.69
9796;BME280;4937;42.680;27.704;2023-12-20T00:50:16;101930.53;;;2.82;82.54
9796;BME280;4937;42.680;27.704;2023-12-20T00:52:41;101918.22;;;2.88;81.71
9796;BME280;4937;42.680;27.704;2023-12-20T00:55:07;101915.13;;;2.71;82.97
9796;BME280;4937;42.680;27.704;2023-12-20T00:57:33;101918.59;;;2.71;82.39
9796;BME280;4937;42.680;27.704;2023-12-20T00:59:58;101911.81;;;2.81;81.97
9796;BME280;4937;42.680;27.704;2023-12-20T01:02:23;101897.59;;;2.87;80.81
9796;BME280;4937;42.680;27.704;2023-12-20T01:04:49;101900.75;;;2.89;80.35
9796;BME280;4937;42.680;27.704;2023-12-20T01:07:14;101902.31;;;2.90;78.99
9796;BME280;4937;42.680;27.704;2023-12-20T01:09:40;101889.84;;;2.89;80.42
9796;BME280;4937;42.680;27.704;2023-12-20T01:12:05;101877.00;;;2.90;81.31
9796;BME280;4937;42.680;27.704;2023-12-20T01:14:31;101873.91;;;2.91;79.75
9796;BME280;4937;42.680;27.704;2023-12-20T01:16:56;101873.34;;;2.82;76.90
9796;BME280;4937;42.680;27.704;2023-12-20T01:19:22;101870.28;;;2.84;76.53
9796;BME280;4937;42.680;27.704;2023-12-20T01:21:49;101858.13;;;2.62;76.22
9796;BME280;4937;42.680;27.704;2023-12-20T01:24:14;101854.44;;;2.55;77.60
9796;BME280;4937;42.680;27.704;2023-12-20T01:26:40;101840.25;;;2.46;76.67
9796;BME280;4937;42.680;27.704;2023-12-20T01:29:05;101846.88;;;2.29;76.22
9796;BME280;4937;42.680;27.704;2023-12-20T01:31:30;101833.81;;;2.19;75.81
9796;BME280;4937;42.680;27.704;2023-12-20T01:33:56;101838.22;;;2.08;76.09
9796;BME280;4937;42.680;27.704;2023-12-20T01:36:21;101832.22;;;2.18;78.44
9796;BME280;4937;42.680;27.704;2023-12-20T01:38:47;101834.34;;;2.25;79.76
9796;BME280;4937;42.680;27.704;2023-12-20T01:41:12;101830.47;;;2.26;79.58
9796;BME280;4937;42.680;27.704;2023-12-20T01:43:37;101833.19;;;2.26;79.79
9796;BME280;4937;42.680;27.704;2023-12-20T01:46:03;101825.47;;;2.28;79.91
9796;BME280;4937;42.680;27.704;2023-12-20T01:48:29;101829.41;;;2.30;80.82
9796;BME280;4937;42.680;27.704;2023-12-20T01:50:57;101827.31;;;2.24;81.15
9796;BME280;4937;42.680;27.704;2023-12-20T01:53:23;101827.38;;;2.27;80.49
9796;BME280;4937;42.680;27.704;2023-12-20T01:55:52;101824.84;;;2.34;80.78
9796;BME280;4937;42.680;27.704;2023-12-20T01:58:19;101823.78;;;2.39;80.75
9796;BME280;4937;42.680;27.704;2023-12-20T02:00:45;101821.19;;;2.46;81.40
9796;BME280;4937;42.680;27.704;2023-12-20T02:03:11;101818.47;;;2.46;81.26
9796;BME280;4937;42.680;27.704;2023-12-20T02:05:37;101820.75;;;2.44;82.14
9796;BME280;4937;42.680;27.704;2023-12-20T02:08:03;101815.06;;;2.49;82.02
9796;BME280;4937;42.680;27.704;2023-12-20T02:10:29;101802.50;;;2.44;81.52
9796;BME280;4937;42.680;27.704;2023-12-20T02:12:55;101810.81;;;2.51;80.93
9796;BME280;4937;42.680;27.704;2023-12-20T02:15:20;101806.91;;;2.49;80.39
9796;BME280;4937;42.680;27.704;2023-12-20T02:17:47;101801.09;;;2.50;80.02
9796;BME280;4937;42.680;27.704;2023-12-20T02:20:13;101798.38;;;2.50;78.83
9796;BME280;4937;42.680;27.704;2023-12-20T02:22:39;101786.19;;;2.44;79.84
9796;BME280;4937;42.680;27.704;2023-12-20T02:25:05;101790.06;;;2.43;79.89
9796;BME280;4937;42.680;27.704;2023-12-20T02:27:30;101790.38;;;2.42;79.95
9796;BME280;4937;42.680;27.704;2023-12-20T02:29:56;101794.72;;;2.43;80.35
9796;BME280;4937;42.680;27.704;2023-12-20T02:32:22;101795.44;;;2.40;80.80
9796;BME280;4937;42.680;27.704;2023-12-20T02:34:51;101787.81;;;2.30;81.29
9796;BME280;4937;42.680;27.704;2023-12-20T02:37:17;101785.44;;;2.28;80.94
9796;BME280;4937;42.680;27.704;2023-12-20T02:39:42;101792.28;;;2.38;81.13
9796;BME280;4937;42.680;27.704;2023-12-20T02:42:08;101795.00;;;2.38;81.02
9796;BME280;4937;42.680;27.704;2023-12-20T02:44:33;101780.31;;;2.42;80.81
9796;BME280;4937;42.680;27.704;2023-12-20T02:46:59;101783.31;;;2.37;80.44
9796;BME280;4937;42.680;27.704;2023-12-20T02:49:24;101780.50;;;2.34;80.45
9796;BME280;4937;42.680;27.704;2023-12-20T02:51:50;101782.94;;;2.39;80.10
9796;BME280;4937;42.680;27.704;2023-12-20T02:54:15;101774.50;;;2.44;79.67
9796;BME280;4937;42.680;27.704;2023-12-20T02:56:41;101769.13;;;2.47;79.82
9796;BME280;4937;42.680;27.704;2023-12-20T02:59:06;101766.75;;;2.46;79.12
9796;BME280;4937;42.680;27.704;2023-12-20T03:01:34;101766.97;;;2.37;79.18
9796;BME280;4937;42.680;27.704;2023-12-20T03:04:00;101767.28;;;2.32;79.56
9796;BME280;4937;42.680;27.704;2023-12-20T03:06:25;101765.69;;;2.31;79.06
9796;BME280;4937;42.680;27.704;2023-12-20T03:08:51;101758.66;;;2.30;78.87
9796;BME280;4937;42.680;27.704;2023-12-20T03:11:16;101755.59;;;2.32;78.96
9796;BME280;4937;42.680;27.704;2023-12-20T03:13:41;101756.66;;;2.27;78.77
9796;BME280;4937;42.680;27.704;2023-12-20T03:16:11;101756.94;;;2.22;78.60
9796;BME280;4937;42.680;27.704;2023-12-20T03:18:36;101763.59;;;2.25;78.56
9796;BME280;4937;42.680;27.704;2023-12-20T03:21:02;101754.50;;;2.17;78.43
9796;BME280;4937;42.680;27.704;2023-12-20T03:23:29;101760.63;;;2.14;77.99
9796;BME280;4937;42.680;27.704;2023-12-20T03:25:55;101758.28;;;2.13;78.92
9796;BME280;4937;42.680;27.704;2023-12-20T03:28:21;101758.19;;;2.09;78.49
9796;BME280;4937;42.680;27.704;2023-12-20T03:30:46;101748.72;;;2.03;77.92
9796;BME280;4937;42.680;27.704;2023-12-20T03:33:12;101748.72;;;2.03;78.43
9796;BME280;4937;42.680;27.704;2023-12-20T03:35:37;101747.00;;;1.95;79.12
9796;BME280;4937;42.680;27.704;2023-12-20T03:38:03;101729.72;;;1.87;79.40
9796;BME280;4937;42.680;27.704;2023-12-20T03:40:28;101734.88;;;1.92;79.97
9796;BME280;4937;42.680;27.704;2023-12-20T03:42:54;101735.31;;;1.94;79.71
9796;BME280;4937;42.680;27.704;2023-12-20T03:45:19;101732.53;;;1.91;79.84
9796;BME280;4937;42.680;27.704;2023-12-20T03:47:44;101724.81;;;1.93;79.85
9796;BME280;4937;42.680;27.704;2023-12-20T03:50:10;101726.72;;;1.92;80.33
9796;BME280;4937;42.680;27.704;2023-12-20T03:52:35;101729.09;;;1.94;80.31
9796;BME280;4937;42.680;27.704;2023-12-20T03:55:01;101725.59;;;1.93;80.34
9796;BME280;4937;42.680;27.704;2023-12-20T03:57:26;101715.84;;;1.92;80.06
9796;BME280;4937;42.680;27.704;2023-12-20T03:59:52;101713.56;;;1.94;79.71
9796;BME280;4937;42.680;27.704;2023-12-20T04:02:17;101716.66;;;1.93;80.40
9796;BME280;4937;42.680;27.704;2023-12-20T04:04:43;101713.50;;;1.91;79.61
9796;BME280;4937;42.680;27.704;2023-12-20T04:07:08;101724.44;;;1.94;79.86
9796;BME280;4937;42.680;27.704;2023-12-20T04:09:34;101725.59;;;1.93;79.69
9796;BME280;4937;42.680;27.704;2023-12-20T04:11:59;101712.34;;;1.92;79.08
9796;BME280;4937;42.680;27.704;2023-12-20T04:14:24;101709.00;;;1.98;79.30
9796;BME280;4937;42.680;27.704;2023-12-20T04:16:50;101710.94;;;1.98;79.77
9796;BME280;4937;42.680;27.704;2023-12-20T04:19:15;101701.75;;;1.87;79.07
9796;BME280;4937;42.680;27.704;2023-12-20T04:21:41;101708.25;;;1.82;79.28
9796;BME280;4937;42.680;27.704;2023-12-20T04:24:06;101702.81;;;1.82;79.81
9796;BME280;4937;42.680;27.704;2023-12-20T04:26:32;101701.06;;;1.74;80.44
9796;BME280;4937;42.680;27.704;2023-12-20T04:28:57;101697.81;;;1.84;80.45
9796;BME280;4937;42.680;27.704;2023-12-20T04:31:23;101702.31;;;1.77;80.25
9796;BME280;4937;42.680;27.704;2023-12-20T04:33:48;101703.50;;;1.79;80.64
9796;BME280;4937;42.680;27.704;2023-12-20T04:36:14;101703.59;;;1.83;80.41
9796;BME280;4937;42.680;27.704;2023-12-20T04:38:39;101706.31;;;1.83;80.31
9796;BME280;4937;42.680;27.704;2023-12-20T04:41:05;101705.53;;;1.82;79.09
9796;BME280;4937;42.680;27.704;2023-12-20T04:43:30;101701.38;;;1.88;78.68
9796;BME280;4937;42.680;27.704;2023-12-20T04:45:56;101702.03;;;1.82;78.95
9796;BME280;4937;42.680;27.704;2023-12-20T04:48:21;101699.94;;;1.75;79.43
9796;BME280;4937;42.680;27.704;2023-12-20T04:50:46;101706.50;;;1.74;78.91
9796;BME280;4937;42.680;27.704;2023-12-20T04:53:12;101696.34;;;1.71;79.32
9796;BME280;4937;42.680;27.704;2023-12-20T04:55:37;101698.28;;;1.71;79.40
9796;BME280;4937;42.680;27.704;2023-12-20T04:58:04;101684.47;;;1.60;79.02
9796;BME280;4937;42.680;27.704;2023-12-20T05:00:29;101690.13;;;1.55;79.01
9796;BME280;4937;42.680;27.704;2023-12-20T05:02:55;101687.34;;;1.52;79.93
9796;BME280;4937;42.680;27.704;2023-12-20T05:05:20;101681.81;;;1.48;79.74
9796;BME280;4937;42.680;27.704;2023-12-20T05:07:46;101674.56;;;1.52;79.54
9796;BME280;4937;42.680;27.704;2023-12-20T05:10:11;101670.00;;;1.56;79.65
9796;BME280;4937;42.680;27.704;2023-12-20T05:12:37;101671.41;;;1.50;80.86
9796;BME280;4937;42.680;27.704;2023-12-20T05:15:02;101675.78;;;1.55;80.39
9796;BME280;4937;42.680;27.704;2023-12-20T05:17:28;101668.47;;;1.59;79.67
9796;BME280;4937;42.680;27.704;2023-12-20T05:19:53;101670.75;;;1.57;80.32
9796;BME280;4937;42.680;27.704;2023-12-20T05:22:19;101665.31;;;1.57;79.99
9796;BME280;4937;42.680;27.704;2023-12-20T05:24:45;101664.91;;;1.55;79.65
9796;BME280;4937;42.680;27.704;2023-12-20T05:27:11;101664.63;;;1.60;79.62
9796;BME280;4937;42.680;27.704;2023-12-20T05:29:36;101665.00;;;1.58;79.70
9796;BME280;4937;42.680;27.704;2023-12-20T05:32:02;101650.69;;;1.61;78.99
9796;BME280;4937;42.680;27.704;2023-12-20T05:34:30;101653.13;;;1.66;78.25
9796;BME280;4937;42.680;27.704;2023-12-20T05:36:55;101647.59;;;1.63;78.38
9796;BME280;4937;42.680;27.704;2023-12-20T05:39:21;101656.91;;;1.62;78.08
9796;BME280;4937;42.680;27.704;2023-12-20T05:41:47;101653.56;;;1.68;77.80
9796;BME280;4937;42.680;27.704;2023-12-20T05:44:13;101654.00;;;1.70;78.65
9796;BME280;4937;42.680;27.704;2023-12-20T05:46:38;101663.47;;;1.76;77.64
9796;BME280;4937;42.680;27.704;2023-12-20T05:49:04;101658.78;;;2.12;76.62
9796;BME280;4937;42.680;27.704;2023-12-20T05:51:30;101656.50;;;2.97;74.13
9796;BME280;4937;42.680;27.704;2023-12-20T05:53:55;101650.63;;;3.96;70.16
9796;BME280;4937;42.680;27.704;2023-12-20T05:56:21;101654.16;;;5.03;65.61
9796;BME280;4937;42.680;27.704;2023-12-20T05:58:46;101658.81;;;6.11;62.00
9796;BME280;4937;42.680;27.704;2023-12-20T06:01:14;101652.03;;;7.26;58.19
9796;BME280;4937;42.680;27.704;2023-12-20T06:03:41;101658.06;;;8.43;54.71
9796;BME280;4937;42.680;27.704;2023-12-20T06:06:07;101660.41;;;9.54;51.38
9796;BME280;4937;42.680;27.704;2023-12-20T06:08:33;101656.09;;;10.57;48.66
9796;BME280;4937;42.680;27.704;2023-12-20T06:10:58;101658.31;;;11.69;45.37
9796;BME280;4937;42.680;27.704;2023-12-20T06:13:23;101661.34;;;12.72;42.53
9796;BME280;4937;42.680;27.704;2023-12-20T06:15:49;101648.63;;;13.71;40.50
9796;BME280;4937;42.680;27.704;2023-12-20T06:18:14;101640.25;;;14.70;38.71
9796;BME280;4937;42.680;27.704;2023-12-20T06:20:39;101646.78;;;15.73;36.10
9796;BME280;4937;42.680;27.704;2023-12-20T06:23:05;101654.72;;;16.70;34.70
9796;BME280;4937;42.680;27.704;2023-12-20T06:25:30;101648.06;;;17.65;31.96
9796;BME280;4937;42.680;27.704;2023-12-20T06:27:56;101648.59;;;18.50;30.37
9796;BME280;4937;42.680;27.704;2023-12-20T06:30:21;101638.59;;;19.42;29.22
9796;BME280;4937;42.680;27.704;2023-12-20T06:32:46;101638.19;;;20.25;27.85
9796;BME280;4937;42.680;27.704;2023-12-20T06:35:13;101642.31;;;21.03;26.56
9796;BME280;4937;42.680;27.704;2023-12-20T06:37:38;101650.88;;;21.74;25.72
9796;BME280;4937;42.680;27.704;2023-12-20T06:40:09;101652.34;;;22.35;24.72
9796;BME280;4937;42.680;27.704;2023-12-20T06:42:34;101648.25;;;22.99;23.90
9796;BME280;4937;42.680;27.704;2023-12-20T06:45:00;101650.41;;;23.57;22.77
9796;BME280;4937;42.680;27.704;2023-12-20T06:47:25;101651.13;;;24.16;21.63
9796;BME280;4937;42.680;27.704;2023-12-20T06:49:51;101637.09;;;24.77;21.70
9796;BME280;4937;42.680;27.704;2023-12-20T06:52:17;101639.53;;;25.36;20.70
9796;BME280;4937;42.680;27.704;2023-12-20T06:54:42;101635.75;;;25.80;20.03
9796;BME280;4937;42.680;27.704;2023-12-20T06:57:07;101629.34;;;26.20;19.20
9796;BME280;4937;42.680;27.704;2023-12-20T06:59:38;101629.16;;;26.48;18.70
9796;BME280;4937;42.680;27.704;2023-12-20T07:02:04;101617.84;;;26.77;18.96
9796;BME280;4937;42.680;27.704;2023-12-20T07:04:30;101629.31;;;27.14;18.23
9796;BME280;4937;42.680;27.704;2023-12-20T07:06:55;101625.56;;;27.49;17.27
9796;BME280;4937;42.680;27.704;2023-12-20T07:09:22;101621.31;;;27.80;17.10
9796;BME280;4937;42.680;27.704;2023-12-20T07:11:48;101617.47;;;28.14;17.38
9796;BME280;4937;42.680;27.704;2023-12-20T07:14:14;101620.13;;;28.25;16.75
9796;BME280;4937;42.680;27.704;2023-12-20T07:16:39;101618.75;;;28.45;16.82
9796;BME280;4937;42.680;27.704;2023-12-20T07:19:05;101614.63;;;28.46;16.78
9796;BME280;4937;42.680;27.704;2023-12-20T07:21:31;101613.31;;;28.47;17.32
9796;BME280;4937;42.680;27.704;2023-12-20T07:23:57;101607.28;;;28.69;16.20
9796;BME280;4937;42.680;27.704;2023-12-20T07:26:22;101605.34;;;28.90;16.30
9796;BME280;4937;42.680;27.704;2023-12-20T07:28:48;101602.31;;;29.14;16.83
9796;BME280;4937;42.680;27.704;2023-12-20T07:31:15;101606.03;;;29.22;16.55
9796;BME280;4937;42.680;27.704;2023-12-20T07:33:41;101593.88;;;29.48;16.63
9796;BME280;4937;42.680;27.704;2023-12-20T07:36:06;101592.31;;;29.73;16.80
9796;BME280;4937;42.680;27.704;2023-12-20T07:38:32;101584.53;;;30.07;16.24
9796;BME280;4937;42.680;27.704;2023-12-20T07:40:58;101580.38;;;30.29;16.22
9796;BME280;4937;42.680;27.704;2023-12-20T07:43:23;101572.97;;;30.47;16.43
9796;BME280;4937;42.680;27.704;2023-12-20T07:45:48;101578.31;;;30.50;16.24
9796;BME280;4937;42.680;27.704;2023-12-20T07:48:14;101579.03;;;30.71;15.82
9796;BME280;4937;42.680;27.704;2023-12-20T07:50:39;101570.69;;;30.73;16.07
9796;BME280;4937;42.680;27.704;2023-12-20T07:53:05;101566.09;;;30.91;15.58
9796;BME280;4937;42.680;27.704;2023-12-20T07:55:30;101569.66;;;31.19;15.88
9796;BME280;4937;42.680;27.704;2023-12-20T07:57:57;101565.97;;;31.40;15.57
9796;BME280;4937;42.680;27.704;2023-12-20T08:00:23;101565.69;;;31.58;15.61
9796;BME280;4937;42.680;27.704;2023-12-20T08:02:48;101554.50;;;31.68;15.99
9796;BME280;4937;42.680;27.704;2023-12-20T08:05:14;101558.66;;;30.18;16.58
9796;BME280;4937;42.680;27.704;2023-12-20T08:07:39;101559.66;;;30.42;17.04
9796;BME280;4937;42.680;27.704;2023-12-20T08:10:05;101551.31;;;30.72;16.46
9796;BME280;4937;42.680;27.704;2023-12-20T08:12:31;101543.72;;;29.84;17.50
9796;BME280;4937;42.680;27.704;2023-12-20T08:14:56;101533.34;;;30.49;17.28
9796;BME280;4937;42.680;27.704;2023-12-20T08:17:22;101537.78;;;31.21;16.22
9796;BME280;4937;42.680;27.704;2023-12-20T08:19:48;101527.91;;;31.88;15.59
9796;BME280;4937;42.680;27.704;2023-12-20T08:22:14;101530.66;;;32.39;15.47
9796;BME280;4937;42.680;27.704;2023-12-20T08:24:39;101531.97;;;32.75;14.90
9796;BME280;4937;42.680;27.704;2023-12-20T08:27:05;101526.16;;;33.13;15.19
9796;BME280;4937;42.680;27.704;2023-12-20T08:29:30;101529.50;;;33.34;14.25
9796;BME280;4937;42.680;27.704;2023-12-20T08:31:56;101521.66;;;33.50;14.10
9796;BME280;4937;42.680;27.704;2023-12-20T08:34:22;101518.56;;;33.80;13.99
9796;BME280;4937;42.680;27.704;2023-12-20T08:36:50;101513.47;;;33.39;14.15
9796;BME280;4937;42.680;27.704;2023-12-20T08:39:15;101506.22;;;32.90;15.31
9796;BME280;4937;42.680;27.704;2023-12-20T08:41:41;101500.16;;;32.71;14.98
9796;BME280;4937;42.680;27.704;2023-12-20T08:44:06;101495.13;;;33.02;14.09
9796;BME280;4937;42.680;27.704;2023-12-20T08:46:31;101482.84;;;32.69;14.77
9796;BME280;4937;42.680;27.704;2023-12-20T08:48:57;101489.72;;;32.59;15.00
9796;BME280;4937;42.680;27.704;2023-12-20T08:51:22;101476.00;;;32.72;14.59
9796;BME280;4937;42.680;27.704;2023-12-20T08:53:50;101476.28;;;33.07;14.30
9796;BME280;4937;42.680;27.704;2023-12-20T08:56:16;101462.84;;;33.24;14.74
9796;BME280;4937;42.680;27.704;2023-12-20T08:58:43;101447.63;;;33.54;14.62
9796;BME280;4937;42.680;27.704;2023-12-20T09:01:09;101446.00;;;31.96;14.71
9796;BME280;4937;42.680;27.704;2023-12-20T09:03:34;101445.78;;;31.05;16.62
9796;BME280;4937;42.680;27.704;2023-12-20T09:06:00;101438.97;;;30.16;17.15
9796;BME280;4937;42.680;27.704;2023-12-20T09:08:25;101421.94;;;29.55;18.21
9796;BME280;4937;42.680;27.704;2023-12-20T09:10:51;101424.25;;;29.97;17.65
9796;BME280;4937;42.680;27.704;2023-12-20T09:13:16;101419.09;;;30.45;17.20
9796;BME280;4937;42.680;27.704;2023-12-20T09:15:41;101422.13;;;29.36;18.31
9796;BME280;4937;42.680;27.704;2023-12-20T09:18:07;101411.44;;;28.82;19.00
9796;BME280;4937;42.680;27.704;2023-12-20T09:20:33;101404.53;;;28.91;19.65
9796;BME280;4937;42.680;27.704;2023-12-20T09:22:58;101400.72;;;29.35;18.97
9796;BME280;4937;42.680;27.704;2023-12-20T09:25:24;101394.75;;;29.25;19.86
9796;BME280;4937;42.680;27.704;2023-12-20T09:27:51;101399.41;;;29.77;19.28
9796;BME280;4937;42.680;27.704;2023-12-20T09:30:17;101391.53;;;30.11;18.93
9796;BME280;4937;42.680;27.704;2023-12-20T09:32:43;101379.91;;;29.61;18.12
9796;BME280;4937;42.680;27.704;2023-12-20T09:35:08;101387.06;;;29.34;18.86
9796;BME280;4937;42.680;27.704;2023-12-20T09:37:34;101368.91;;;29.16;19.32
9796;BME280;4937;42.680;27.704;2023-12-20T09:39:59;101366.81;;;29.16;18.62
9796;BME280;4937;42.680;27.704;2023-12-20T09:42:36;101372.63;;;28.38;19.71
9796;BME280;4937;42.680;27.704;2023-12-20T09:45:04;101361.47;;;28.79;20.03
9796;BME280;4937;42.680;27.704;2023-12-20T09:47:32;101359.63;;;28.56;19.58
9796;BME280;4937;42.680;27.704;2023-12-20T09:49:58;101358.44;;;28.98;19.65
9796;BME280;4937;42.680;27.704;2023-12-20T09:52:23;101348.25;;;28.69;19.72
9796;BME280;4937;42.680;27.704;2023-12-20T09:54:49;101346.34;;;27.98;21.29
9796;BME280;4937;42.680;27.704;2023-12-20T09:57:17;101342.72;;;28.37;20.80
9796;BME280;4937;42.680;27.704;2023-12-20T09:59:43;101341.03;;;29.14;19.89
9796;BME280;4937;42.680;27.704;2023-12-20T10:02:12;101333.38;;;28.03;20.51
9796;BME280;4937;42.680;27.704;2023-12-20T10:04:43;101319.13;;;29.02;20.11
9796;BME280;4937;42.680;27.704;2023-12-20T10:07:11;101320.09;;;29.87;19.50
9796;BME280;4937;42.680;27.704;2023-12-20T10:09:36;101324.03;;;30.48;19.72
9796;BME280;4937;42.680;27.704;2023-12-20T10:12:03;101315.19;;;30.66;19.41
9796;BME280;4937;42.680;27.704;2023-12-20T10:14:30;101314.84;;;30.77;18.76
9796;BME280;4937;42.680;27.704;2023-12-20T10:17:02;101311.09;;;30.82;19.58
9796;BME280;4937;42.680;27.704;2023-12-20T10:19:28;101302.53;;;30.75;18.63
9796;BME280;4937;42.680;27.704;2023-12-20T10:21:53;101299.72;;;30.90;18.25
9796;BME280;4937;42.680;27.704;2023-12-20T10:24:18;101303.97;;;31.19;18.48
9796;BME280;4937;42.680;27.704;2023-12-20T10:26:44;101300.38;;;30.53;19.17
9796;BME280;4937;42.680;27.704;2023-12-20T10:29:09;101284.28;;;30.70;18.88
9796;BME280;4937;42.680;27.704;2023-12-20T10:31:36;101286.41;;;29.42;20.12
9796;BME280;4937;42.680;27.704;2023-12-20T10:34:03;101276.13;;;29.39;19.20
9796;BME280;4937;42.680;27.704;2023-12-20T10:36:31;101276.63;;;29.30;19.36
9796;BME280;4937;42.680;27.704;2023-12-20T10:38:57;101260.47;;;28.84;20.70
9796;BME280;4937;42.680;27.704;2023-12-20T10:41:31;101253.59;;;28.59;20.67
9796;BME280;4937;42.680;27.704;2023-12-20T10:44:00;101252.72;;;28.84;20.76
9796;BME280;4937;42.680;27.704;2023-12-20T10:46:28;101252.94;;;29.07;20.86
9796;BME280;4937;42.680;27.704;2023-12-20T10:48:58;101250.75;;;28.59;20.88
9796;BME280;4937;42.680;27.704;2023-12-20T10:51:24;101243.53;;;28.45;21.67
9796;BME280;4937;42.680;27.704;2023-12-20T10:53:56;101240.44;;;28.89;21.43
9796;BME280;4937;42.680;27.704;2023-12-20T10:56:22;101224.19;;;29.10;20.16
9796;BME280;4937;42.680;27.704;2023-12-20T10:58:49;101229.41;;;28.65;21.27
9796;BME280;4937;42.680;27.704;2023-12-20T11:01:16;101228.09;;;28.32;21.88
9796;BME280;4937;42.680;27.704;2023-12-20T11:03:53;101222.22;;;28.30;21.49
9796;BME280;4937;42.680;27.704;2023-12-20T11:09:24;101220.34;;;28.67;21.32
9796;BME280;4937;42.680;27.704;2023-12-20T11:12:19;101215.72;;;28.56;20.85
9796;BME280;4937;42.680;27.704;2023-12-20T11:14:50;101212.13;;;28.76;21.29
9796;BME280;4937;42.680;27.704;2023-12-20T11:17:16;101212.81;;;29.10;20.26
9796;BME280;4937;42.680;27.704;2023-12-20T11:22:24;101208.47;;;28.89;20.72
9796;BME280;4937;42.680;27.704;2023-12-20T11:24:52;101201.88;;;29.14;20.25
9796;BME280;4937;42.680;27.704;2023-12-20T11:27:18;101201.13;;;28.73;21.29
9796;BME280;4937;42.680;27.704;2023-12-20T11:29:51;101197.38;;;28.23;22.45
9796;BME280;4937;42.680;27.704;2023-12-20T11:35:22;101185.09;;;27.29;22.58
9796;BME280;4937;42.680;27.704;2023-12-20T11:37:48;101176.25;;;27.20;22.89
9796;BME280;4937;42.680;27.704;2023-12-20T11:40:18;101175.47;;;27.06;23.72
9796;BME280;4937;42.680;27.704;2023-12-20T11:42:51;101169.13;;;26.87;23.70
9796;BME280;4937;42.680;27.704;2023-12-20T11:45:24;101161.19;;;27.12;23.04
9796;BME280;4937;42.680;27.704;2023-12-20T11:47:51;101153.72;;;27.27;22.80
9796;BME280;4937;42.680;27.704;2023-12-20T11:50:21;101148.81;;;27.67;21.93
9796;BME280;4937;42.680;27.704;2023-12-20T11:52:48;101145.53;;;27.76;21.58
9796;BME280;4937;42.680;27.704;2023-12-20T11:55:14;101141.41;;;27.77;21.72
9796;BME280;4937;42.680;27.704;2023-12-20T11:57:39;101138.19;;;28.07;20.91
9796;BME280;4937;42.680;27.704;2023-12-20T12:00:06;101126.59;;;27.71;21.43
9796;BME280;4937;42.680;27.704;2023-12-20T12:02:32;101122.13;;;27.63;22.08
9796;BME280;4937;42.680;27.704;2023-12-20T12:04:59;101119.19;;;27.68;21.25
9796;BME280;4937;42.680;27.704;2023-12-20T12:07:24;101119.44;;;27.57;21.88
9796;BME280;4937;42.680;27.704;2023-12-20T12:09:50;101109.69;;;27.13;24.08
9796;BME280;4937;42.680;27.704;2023-12-20T12:12:17;101105.88;;;26.53;23.98
9796;BME280;4937;42.680;27.704;2023-12-20T12:14:45;101110.41;;;26.11;24.45
9796;BME280;4937;42.680;27.704;2023-12-20T12:17:12;101103.28;;;25.25;25.93
9796;BME280;4937;42.680;27.704;2023-12-20T12:19:38;101104.47;;;24.51;26.79
9796;BME280;4937;42.680;27.704;2023-12-20T12:22:11;101090.00;;;24.01;27.60
9796;BME280;4937;42.680;27.704;2023-12-20T12:24:45;101088.91;;;22.68;30.22
9796;BME280;4937;42.680;27.704;2023-12-20T12:27:12;101091.22;;;21.55;31.78
9796;BME280;4937;42.680;27.704;2023-12-20T12:29:38;101093.28;;;20.39;34.75
9796;BME280;4937;42.680;27.704;2023-12-20T12:32:08;101088.91;;;19.41;35.84
9796;BME280;4937;42.680;27.704;2023-12-20T12:34:34;101087.31;;;18.21;39.53
9796;BME280;4937;42.680;27.704;2023-12-20T12:37:00;101090.25;;;17.27;41.07
9796;BME280;4937;42.680;27.704;2023-12-20T12:39:26;101083.59;;;16.68;42.29
9796;BME280;4937;42.680;27.704;2023-12-20T12:41:52;101088.69;;;16.19;45.21
9796;BME280;4937;42.680;27.704;2023-12-20T12:44:18;101085.50;;;15.75;45.78
9796;BME280;4937;42.680;27.704;2023-12-20T12:46:45;101077.44;;;15.32;47.52
9796;BME280;4937;42.680;27.704;2023-12-20T12:49:11;101077.44;;;15.32;47.32
9796;BME280;4937;42.680;27.704;2023-12-20T12:51:36;101079.38;;;15.04;48.87
9796;BME280;4937;42.680;27.704;2023-12-20T12:54:02;101078.13;;;15.05;48.98
9796;BME280;4937;42.680;27.704;2023-12-20T12:56:28;101082.03;;;15.17;48.53
9796;BME280;4937;42.680;27.704;2023-12-20T12:58:54;101070.22;;;15.43;48.41
9796;BME280;4937;42.680;27.704;2023-12-20T13:01:20;101065.59;;;15.76;47.30
9796;BME280;4937;42.680;27.704;2023-12-20T13:03:45;101075.75;;;15.98;45.07
9796;BME280;4937;42.680;27.704;2023-12-20T13:06:11;101074.97;;;16.06;45.88
9796;BME280;4937;42.680;27.704;2023-12-20T13:08:36;101073.69;;;16.16;46.01